createdAt,value
2022-07-31T00:04:17.826Z,99986.00
2022-07-31T00:09:53.072Z,99994.50
2022-07-31T00:14:41.068Z,99998.94
2022-07-31T00:19:42.533Z,100007.50
2022-07-31T00:24:44.428Z,99994.88
2022-07-31T00:29:45.900Z,99996.41
2022-07-31T00:34:47.330Z,99989.75
2022-07-31T00:39:49.507Z,100005.41
2022-07-31T00:44:52.040Z,100001.34
2022-07-31T00:49:53.689Z,100004.38
2022-07-31T00:54:55.267Z,100007.59
2022-07-31T00:59:56.915Z,99998.25
2022-07-31T01:04:58.400Z,100003.19
2022-07-31T01:10:05.117Z,99996.22
2022-07-31T01:15:09.254Z,99997.94
2022-07-31T01:20:12.104Z,100002.38
2022-07-31T01:25:31.955Z,100001.78
2022-07-31T01:30:42.475Z,99999.19
2022-07-31T01:35:51.917Z,99992.78
2022-07-31T01:40:59.377Z,99990.72
2022-07-31T01:46:03.169Z,99999.28
2022-07-31T01:51:08.886Z,100005.88
2022-07-31T01:56:11.225Z,100001.16
2022-07-31T02:01:14.671Z,99999.25
2022-07-31T02:06:19.010Z,99997.34
2022-07-31T02:11:21.432Z,100000.97
2022-07-31T02:16:24.748Z,100004.34
2022-07-31T02:21:26.502Z,99997.53
2022-07-31T02:26:32.019Z,99996.50
2022-07-31T02:31:35.529Z,100006.03
2022-07-31T02:36:37.296Z,99995.19
2022-07-31T02:41:40.151Z,99999.34
2022-07-31T02:46:44.693Z,100002.31
2022-07-31T02:51:46.536Z,99999.84
2022-07-31T02:56:49.191Z,100005.00
2022-07-31T03:01:50.656Z,100000.16
2022-07-31T03:06:53.253Z,99998.84
2022-07-31T03:11:54.721Z,100007.69
2022-07-31T03:16:58.406Z,100002.94
2022-07-31T03:22:00.533Z,100000.03
2022-07-31T03:27:02.405Z,100001.91
2022-07-31T03:32:04.267Z,100003.72
2022-07-31T03:37:06.078Z,100005.38
2022-07-31T03:42:18.573Z,100001.44
2022-07-31T03:47:21.763Z,100004.97
2022-07-31T03:52:23.575Z,100008.38
2022-07-31T03:57:31.104Z,100010.78
2022-07-31T04:02:32.978Z,99992.69
2022-07-31T04:07:34.582Z,99998.84
2022-07-31T04:12:36.521Z,99998.03
2022-07-31T04:17:38.294Z,99986.56
2022-07-31T04:22:39.890Z,99992.72
2022-07-31T04:27:48.015Z,99993.03
2022-07-31T04:32:51.078Z,99991.41
2022-07-31T04:37:52.525Z,99986.59
2022-07-31T04:42:54.899Z,99991.78
2022-07-31T04:47:56.405Z,99994.47
2022-07-31T04:52:57.861Z,99992.25
2022-07-31T04:57:59.298Z,99989.84
2022-07-31T05:03:00.799Z,99992.91
2022-07-31T05:08:02.285Z,99985.63
2022-07-31T05:13:03.964Z,99983.75
2022-07-31T05:18:07.654Z,99990.72
2022-07-31T05:23:09.177Z,99976.78
2022-07-31T05:28:10.631Z,99993.47
2022-07-31T05:33:13.987Z,99987.34
2022-07-31T05:38:17.909Z,99991.28
2022-07-31T05:43:20.200Z,99986.38
2022-07-31T05:48:22.772Z,99990.09
2022-07-31T05:53:24.571Z,99992.81
2022-07-31T05:58:26.070Z,99990.56
2022-07-31T06:03:28.675Z,99992.63
2022-07-31T06:08:30.583Z,99997.91
2022-07-31T06:13:32.016Z,99989.38
2022-07-31T06:18:33.644Z,100001.38
2022-07-31T06:23:35.535Z,99994.19
2022-07-31T06:28:47.450Z,99989.28
2022-07-31T06:33:50.959Z,99999.66
2022-07-31T06:38:52.712Z,100002.03
2022-07-31T06:43:54.156Z,100005.13
2022-07-31T06:48:55.683Z,100008.22
2022-07-31T06:53:57.573Z,100016.91
2022-07-31T06:58:59.409Z,99998.66
2022-07-31T07:04:13.039Z,100002.78
2022-07-31T07:09:54.133Z,100002.41
2022-07-31T07:14:55.814Z,99999.00
2022-07-31T07:19:57.444Z,100006.34
2022-07-31T07:25:01.346Z,100008.19
2022-07-31T07:30:03.386Z,100012.13
2022-07-31T07:35:05.398Z,100009.69
2022-07-31T07:40:08.771Z,100006.59
2022-07-31T07:45:11.030Z,100010.53
2022-07-31T07:50:13.071Z,100003.66
2022-07-31T07:55:14.738Z,100002.50
2022-07-31T08:00:16.510Z,99999.75
2022-07-31T08:05:18.122Z,99998.97
2022-07-31T08:10:20.565Z,99997.03
2022-07-31T08:15:22.382Z,100003.22
2022-07-31T08:20:23.978Z,100002.66
2022-07-31T08:25:25.630Z,100008.56
2022-07-31T08:30:33.870Z,100008.25
2022-07-31T08:35:35.513Z,100015.00
2022-07-31T08:40:42.648Z,100009.38
2022-07-31T08:45:48.179Z,100017.34
2022-07-31T08:50:53.765Z,100007.34
2022-07-31T08:55:57.792Z,100007.56
2022-07-31T09:00:59.880Z,100002.34
2022-07-31T09:06:01.690Z,99997.25
2022-07-31T09:11:09.271Z,99989.81
2022-07-31T09:16:10.937Z,99984.69
2022-07-31T09:21:12.588Z,99983.03
2022-07-31T09:26:14.543Z,99983.25
2022-07-31T09:31:16.157Z,99988.44
2022-07-31T09:36:23.815Z,99974.09
2022-07-31T09:41:56.716Z,99979.75
2022-07-31T09:46:48.538Z,99973.22
2022-07-31T09:51:50.200Z,99968.84
2022-07-31T09:56:52.417Z,99970.38
2022-07-31T10:01:55.543Z,99973.31
2022-07-31T10:06:57.510Z,99975.22
2022-07-31T10:12:01.332Z,99976.53
2022-07-31T10:17:05.546Z,99978.50
2022-07-31T10:22:09.990Z,99988.50
2022-07-31T10:27:14.394Z,99965.94
2022-07-31T10:32:16.603Z,99983.38
2022-07-31T10:37:58.348Z,99967.97
2022-07-31T10:43:39.389Z,99963.84
2022-07-31T10:48:51.458Z,99966.03
2022-07-31T10:54:01.624Z,99959.66
2022-07-31T10:59:03.711Z,99951.66
2022-07-31T11:04:05.280Z,99952.91
2022-07-31T11:09:06.948Z,99941.91
2022-07-31T11:14:08.532Z,99950.59
2022-07-31T11:19:10.220Z,99956.75
2022-07-31T11:24:16.076Z,99936.81
2022-07-31T11:30:00.679Z,99932.94
2022-07-31T11:34:54.996Z,99932.69
2022-07-31T11:39:57.575Z,99939.22
2022-07-31T11:45:11.155Z,99943.63
2022-07-31T11:50:31.031Z,99931.88
2022-07-31T11:55:43.617Z,99931.06
2022-07-31T12:00:50.472Z,99933.41
2022-07-31T12:05:52.844Z,99924.97
2022-07-31T12:10:57.721Z,99925.38
2022-07-31T12:16:09.429Z,99932.44
2022-07-31T12:21:11.404Z,99943.59
2022-07-31T12:26:28.275Z,99929.84
2022-07-31T12:31:31.219Z,99939.66
2022-07-31T12:36:32.906Z,99936.09
2022-07-31T12:41:43.253Z,99925.91
2022-07-31T12:46:44.871Z,99936.25
2022-07-31T12:51:47.241Z,99930.28
2022-07-31T12:56:48.960Z,99927.88
2022-07-31T13:01:50.644Z,99926.19
2022-07-31T13:06:52.311Z,99932.06
2022-07-31T13:11:57.719Z,99930.25
2022-07-31T13:16:59.704Z,99924.88
2022-07-31T13:22:01.324Z,99930.03
2022-07-31T13:27:03.220Z,99921.75
2022-07-31T13:32:05.313Z,99919.22
2022-07-31T13:37:07.398Z,99911.69
2022-07-31T13:42:09.145Z,99905.66
2022-07-31T13:47:10.783Z,99892.03
2022-07-31T13:52:12.366Z,99902.59
2022-07-31T13:57:14.965Z,99897.66
2022-07-31T14:02:16.951Z,99899.31
2022-07-31T14:07:18.821Z,99902.41
2022-07-31T14:12:22.300Z,99905.69
2022-07-31T14:17:24.049Z,99897.25
2022-07-31T14:22:25.707Z,99900.91
2022-07-31T14:27:27.286Z,99896.28
2022-07-31T14:32:31.244Z,99897.06
2022-07-31T14:37:32.834Z,99879.78
2022-07-31T14:42:35.296Z,99888.13
2022-07-31T14:47:37.329Z,99898.25
2022-07-31T14:52:39.698Z,99884.31
2022-07-31T14:57:42.009Z,99883.69
2022-07-31T15:02:44.839Z,99887.03
2022-07-31T15:07:48.179Z,99874.44
2022-07-31T15:12:50.035Z,99892.56
2022-07-31T15:17:51.723Z,99891.69
2022-07-31T15:22:53.394Z,99877.38
2022-07-31T15:27:55.010Z,99875.59
2022-07-31T15:32:56.610Z,99879.19
2022-07-31T15:38:02.271Z,99876.03
2022-07-31T15:43:04.127Z,99877.75
2022-07-31T15:48:09.804Z,99867.31
2022-07-31T15:53:11.694Z,99876.34
2022-07-31T15:58:13.565Z,99872.56
2022-07-31T16:03:17.890Z,99869.84
2022-07-31T16:08:29.169Z,99864.94
2022-07-31T16:13:36.675Z,99859.16
2022-07-31T16:18:38.293Z,99856.63
2022-07-31T16:23:39.984Z,99856.22
2022-07-31T16:28:41.609Z,99857.56
2022-07-31T16:33:43.241Z,99856.03
2022-07-31T16:39:17.647Z,99855.91
2022-07-31T16:44:13.945Z,99851.25
2022-07-31T16:49:35.951Z,99852.09
2022-07-31T16:54:37.303Z,99851.69
2022-07-31T16:59:56.421Z,99855.19
2022-07-31T17:04:59.542Z,99859.19
2022-07-31T17:10:01.115Z,99849.25
2022-07-31T17:15:02.818Z,99851.41
2022-07-31T17:20:05.124Z,99849.97
2022-07-31T17:25:09.931Z,99857.03
2022-07-31T17:30:12.483Z,99854.25
2022-07-31T17:35:14.100Z,99849.38
2022-07-31T17:40:40.876Z,99854.25
2022-07-31T17:45:59.329Z,99861.06
2022-07-31T17:51:00.362Z,99860.66
2022-07-31T17:56:02.071Z,99857.06
2022-07-31T18:01:03.916Z,99855.75
2022-07-31T18:06:05.624Z,99856.66
2022-07-31T18:11:08.354Z,99856.69
2022-07-31T18:16:10.129Z,99862.19
2022-07-31T18:21:12.116Z,99857.94
2022-07-31T18:26:13.765Z,99863.88
2022-07-31T18:31:34.656Z,99860.47
2022-07-31T18:36:37.727Z,99860.44
2022-07-31T18:41:39.409Z,99867.19
2022-07-31T18:46:41.136Z,99873.44
2022-07-31T18:51:43.604Z,99870.38
2022-07-31T18:56:45.600Z,99889.16
2022-07-31T19:01:47.299Z,99891.81
2022-07-31T19:06:54.078Z,99880.56
2022-07-31T19:11:58.499Z,99888.66
2022-07-31T19:17:01.219Z,99893.66
2022-07-31T19:22:04.183Z,99899.06
2022-07-31T19:27:05.998Z,99907.19
2022-07-31T19:32:08.070Z,99901.78
2022-07-31T19:37:09.972Z,99916.03
2022-07-31T19:42:12.395Z,99912.56
2022-07-31T19:47:14.034Z,99914.03
2022-07-31T19:52:15.765Z,99909.72
2022-07-31T19:57:18.202Z,99915.13
2022-07-31T20:02:20.352Z,99924.97
2022-07-31T20:07:23.118Z,99916.66
2022-07-31T20:12:25.360Z,99916.75
2022-07-31T20:17:27.519Z,99916.22
2022-07-31T20:22:29.103Z,99924.66
2022-07-31T20:27:30.717Z,99925.59
2022-07-31T20:32:32.459Z,99933.03
2022-07-31T20:37:35.763Z,99934.38
2022-07-31T20:42:37.536Z,99921.13
2022-07-31T20:47:39.253Z,99922.81
2022-07-31T20:52:40.930Z,99930.38
2022-07-31T20:57:42.542Z,99929.91
2022-07-31T21:02:44.217Z,99921.84
2022-07-31T21:07:45.804Z,99915.59
2022-07-31T21:12:47.386Z,99921.09
2022-07-31T21:17:49.023Z,99914.97
2022-07-31T21:22:50.632Z,99917.19
2022-07-31T21:27:52.589Z,99916.09
2022-07-31T21:32:54.579Z,99909.88
2022-07-31T21:37:58.124Z,99912.34
2022-07-31T21:43:01.062Z,99911.09
2022-07-31T21:48:10.141Z,99908.97
2022-07-31T21:53:13.251Z,99920.22
2022-07-31T21:58:15.199Z,99918.31
2022-07-31T22:03:16.814Z,99914.94
2022-07-31T22:08:18.647Z,99910.63
2022-07-31T22:13:21.269Z,99918.22
2022-07-31T22:18:23.614Z,99921.63
2022-07-31T22:23:28.745Z,99916.88
2022-07-31T22:28:31.017Z,99919.97
2022-07-31T22:33:32.684Z,99918.09
2022-07-31T22:38:34.825Z,99925.81
2022-07-31T22:44:10.316Z,99934.06
2022-07-31T22:48:58.288Z,99931.41
2022-07-31T22:54:00.020Z,99929.56
2022-07-31T22:59:01.647Z,99920.19
2022-07-31T23:04:03.269Z,99925.38
2022-07-31T23:09:04.909Z,99913.47
2022-07-31T23:14:06.557Z,99910.06
2022-07-31T23:19:08.238Z,99893.50
2022-07-31T23:24:10.836Z,99905.84
2022-07-31T23:29:12.563Z,99913.22
2022-07-31T23:34:16.996Z,99916.31
2022-07-31T23:39:18.976Z,99914.28
2022-07-31T23:44:25.189Z,99911.72
2022-07-31T23:49:26.907Z,99920.09
2022-07-31T23:54:28.525Z,99914.13
2022-07-31T23:59:30.181Z,99905.44
